createdAt,value
2023-05-01T00:03:47.408Z,90.01
2023-05-01T00:08:49.473Z,89.40
2023-05-01T00:13:51.736Z,89.16
2023-05-01T00:18:55.186Z,89.67
2023-05-01T00:23:57.365Z,90.65
2023-05-01T00:28:59.380Z,91.08
2023-05-01T00:34:02.766Z,89.80
2023-05-01T00:39:07.585Z,89.23
2023-05-01T00:44:09.552Z,89.40
2023-05-01T00:49:13.456Z,88.50
2023-05-01T00:54:15.606Z,88.49
2023-05-01T00:59:17.858Z,88.09
2023-05-01T01:04:21.316Z,89.15
2023-05-01T01:09:31.722Z,88.58
2023-05-01T01:14:40.123Z,89.47
2023-05-01T01:20:15.940Z,90.34
2023-05-01T01:25:50.875Z,91.41
2023-05-01T01:31:08.969Z,91.77
2023-05-01T01:36:21.300Z,92.13
2023-05-01T01:41:30.248Z,91.47
2023-05-01T01:46:37.536Z,91.76
2023-05-01T01:51:42.367Z,92.76
2023-05-01T01:56:46.131Z,91.27
2023-05-01T02:01:50.989Z,91.73
2023-05-01T02:06:56.449Z,92.27
2023-05-01T02:12:00.232Z,92.16
2023-05-01T02:17:02.902Z,92.91
2023-05-01T02:22:07.720Z,92.96
2023-05-01T02:27:13.719Z,93.04
2023-05-01T02:32:15.717Z,92.78
2023-05-01T02:37:19.073Z,92.29
2023-05-01T02:42:23.892Z,92.97
2023-05-01T02:47:28.910Z,93.07
2023-05-01T02:52:32.597Z,93.53
2023-05-01T02:57:34.677Z,93.34
2023-05-01T03:02:36.760Z,93.82
2023-05-01T03:07:40.036Z,93.59
2023-05-01T03:12:42.319Z,93.70
2023-05-01T03:17:44.267Z,93.19
2023-05-01T03:22:47.552Z,93.26
2023-05-01T03:27:50.021Z,93.37
2023-05-01T03:32:52.053Z,92.95
2023-05-01T03:37:55.562Z,91.37
2023-05-01T03:42:57.600Z,89.64
2023-05-01T03:47:59.785Z,87.41
2023-05-01T03:53:03.087Z,83.91
2023-05-01T03:58:05.046Z,81.70
2023-05-01T04:03:07.255Z,80.08
2023-05-01T04:08:11.255Z,77.43
2023-05-01T04:13:13.391Z,77.05
2023-05-01T04:18:15.353Z,76.74
2023-05-01T04:23:18.762Z,73.21
2023-05-01T04:28:21.042Z,71.86
2023-05-01T04:33:23.543Z,69.97
2023-05-01T04:38:26.988Z,65.50
2023-05-01T04:43:28.895Z,60.55
2023-05-01T04:48:31.034Z,60.86
2023-05-01T04:53:34.328Z,58.73
2023-05-01T04:58:36.335Z,58.08
2023-05-01T05:03:38.393Z,55.95
2023-05-01T05:08:42.344Z,57.02
2023-05-01T05:13:44.434Z,54.72
2023-05-01T05:18:46.411Z,53.84
2023-05-01T05:23:49.768Z,52.84
2023-05-01T05:28:51.840Z,56.92
2023-05-01T05:33:53.955Z,55.09
2023-05-01T05:38:57.326Z,52.66
2023-05-01T05:43:59.662Z,55.69
2023-05-01T05:49:01.642Z,55.43
2023-05-01T05:54:05.014Z,54.94
2023-05-01T05:59:07.017Z,53.20
2023-05-01T06:04:09.876Z,53.39
2023-05-01T06:09:15.921Z,53.30
2023-05-01T06:14:19.015Z,51.79
2023-05-01T06:19:21.041Z,52.35
2023-05-01T06:24:24.641Z,49.75
2023-05-01T06:29:26.625Z,50.30
2023-05-01T06:34:28.614Z,49.70
2023-05-01T06:39:32.008Z,50.95
2023-05-01T06:44:33.981Z,53.00
2023-05-01T06:49:36.010Z,52.88
2023-05-01T06:54:39.420Z,49.81
2023-05-01T06:59:41.468Z,48.96
2023-05-01T07:04:44.450Z,46.73
2023-05-01T07:09:47.646Z,46.38
2023-05-01T07:14:49.599Z,45.71
2023-05-01T07:19:51.792Z,46.40
2023-05-01T07:24:55.062Z,44.21
2023-05-01T07:29:58.053Z,43.99
2023-05-01T07:35:00.365Z,45.42
2023-05-01T07:40:04.257Z,42.84
2023-05-01T07:45:07.587Z,44.67
2023-05-01T07:50:10.462Z,43.37
2023-05-01T07:55:13.844Z,43.92
2023-05-01T08:00:17.490Z,41.83
2023-05-01T08:05:19.691Z,42.30
2023-05-01T08:10:23.083Z,42.13
2023-05-01T08:15:25.105Z,43.11
2023-05-01T08:20:27.250Z,41.19
2023-05-01T08:25:31.603Z,42.44
2023-05-01T08:30:33.637Z,40.71
2023-05-01T08:35:35.654Z,42.92
2023-05-01T08:40:40.938Z,39.40
2023-05-01T08:45:43.312Z,40.27
2023-05-01T08:50:47.465Z,40.42
2023-05-01T08:55:52.216Z,38.36
2023-05-01T09:00:57.495Z,39.15
2023-05-01T09:06:02.589Z,39.96
2023-05-01T09:11:06.441Z,36.15
2023-05-01T09:16:08.586Z,37.44
2023-05-01T09:21:12.008Z,35.06
2023-05-01T09:26:15.824Z,37.86
2023-05-01T09:31:22.901Z,38.09
2023-05-01T09:36:27.936Z,37.74
2023-05-01T09:41:33.024Z,36.49
2023-05-01T09:46:42.565Z,36.79
2023-05-01T09:51:44.702Z,39.43
2023-05-01T09:56:49.009Z,37.46
2023-05-01T10:01:51.406Z,40.13
2023-05-01T10:06:53.372Z,36.95
2023-05-01T10:11:57.720Z,39.15
2023-05-01T10:17:00.064Z,41.07
2023-05-01T10:22:02.389Z,39.67
2023-05-01T10:27:07.820Z,40.04
2023-05-01T10:32:10.387Z,41.31
2023-05-01T10:37:17.237Z,37.36
2023-05-01T10:42:20.615Z,40.35
2023-05-01T10:47:44.714Z,37.65
2023-05-01T10:53:18.361Z,40.35
2023-05-01T10:58:56.489Z,39.27
2023-05-01T11:03:59.862Z,39.08
2023-05-01T11:09:02.775Z,45.09
2023-05-01T11:14:07.505Z,38.81
2023-05-01T11:19:11.108Z,37.69
2023-05-01T11:24:13.100Z,39.96
2023-05-01T11:29:17.124Z,37.54
2023-05-01T11:34:19.343Z,37.93
2023-05-01T11:39:22.151Z,39.51
2023-05-01T11:44:25.516Z,36.76
2023-05-01T11:49:30.757Z,36.77
2023-05-01T11:54:47.404Z,37.82
2023-05-01T11:59:50.784Z,38.86
2023-05-01T12:04:53.973Z,37.11
2023-05-01T12:09:56.139Z,37.45
2023-05-01T12:15:00.912Z,35.72
2023-05-01T12:20:04.355Z,39.73
2023-05-01T12:25:07.694Z,37.81
2023-05-01T12:30:12.059Z,35.97
2023-05-01T12:35:15.490Z,37.34
2023-05-01T12:40:17.570Z,36.22
2023-05-01T12:45:21.010Z,36.61
2023-05-01T12:50:23.093Z,35.03
2023-05-01T12:55:25.148Z,33.48
2023-05-01T13:00:28.454Z,34.51
2023-05-01T13:05:30.952Z,35.69
2023-05-01T13:10:32.975Z,33.15
2023-05-01T13:15:37.458Z,33.39
2023-05-01T13:20:39.514Z,35.12
2023-05-01T13:25:41.604Z,35.79
2023-05-01T13:30:45.382Z,35.72
2023-05-01T13:35:47.352Z,37.05
2023-05-01T13:40:49.614Z,36.06
2023-05-01T13:45:57.829Z,36.57
2023-05-01T13:50:59.788Z,34.94
2023-05-01T13:56:04.228Z,34.15
2023-05-01T14:01:15.031Z,33.73
2023-05-01T14:06:18.992Z,37.03
2023-05-01T14:11:21.073Z,33.74
2023-05-01T14:16:25.962Z,34.48
2023-05-01T14:21:28.304Z,33.00
2023-05-01T14:26:30.555Z,32.65
2023-05-01T14:31:33.907Z,35.93
2023-05-01T14:36:35.962Z,31.77
2023-05-01T14:41:42.310Z,31.64
2023-05-01T14:46:49.581Z,33.66
2023-05-01T14:51:53.263Z,33.46
2023-05-01T14:56:55.267Z,34.52
2023-05-01T15:01:58.639Z,32.15
2023-05-01T15:07:00.634Z,33.68
2023-05-01T15:12:04.527Z,33.95
2023-05-01T15:17:08.886Z,33.18
2023-05-01T15:22:10.836Z,34.23
2023-05-01T15:27:13.076Z,33.98
2023-05-01T15:32:16.475Z,33.85
2023-05-01T15:37:18.478Z,34.55
2023-05-01T15:42:20.742Z,33.96
2023-05-01T15:47:24.178Z,33.32
2023-05-01T15:52:27.090Z,34.08
2023-05-01T15:57:29.467Z,34.11
2023-05-01T16:02:33.204Z,33.97
2023-05-01T16:07:35.368Z,33.35
2023-05-01T16:12:37.592Z,34.44
2023-05-01T16:17:43.674Z,32.48
2023-05-01T16:22:45.860Z,32.98
2023-05-01T16:27:47.921Z,32.18
2023-05-01T16:32:51.330Z,30.70
2023-05-01T16:37:53.704Z,30.73
2023-05-01T16:42:56.173Z,31.06
2023-05-01T16:47:59.692Z,31.55
2023-05-01T16:53:01.714Z,31.75
2023-05-01T16:58:03.700Z,32.57
2023-05-01T17:03:07.166Z,32.63
2023-05-01T17:08:10.550Z,35.20
2023-05-01T17:13:14.544Z,34.60
2023-05-01T17:18:18.092Z,37.20
2023-05-01T17:23:22.283Z,40.38
2023-05-01T17:28:24.508Z,41.52
2023-05-01T17:33:30.994Z,44.07
2023-05-01T17:38:33.032Z,46.81
2023-05-01T17:43:35.042Z,44.16
2023-05-01T17:48:38.366Z,51.71
2023-05-01T17:53:40.799Z,52.26
2023-05-01T17:58:42.692Z,54.80
2023-05-01T18:03:46.216Z,56.62
2023-05-01T18:08:50.004Z,58.16
2023-05-01T18:13:52.207Z,60.18
2023-05-01T18:18:58.028Z,61.27
2023-05-01T18:24:02.306Z,62.04
2023-05-01T18:29:04.313Z,63.18
2023-05-01T18:34:10.078Z,64.16
2023-05-01T18:39:12.302Z,64.23
2023-05-01T18:44:14.484Z,65.43
2023-05-01T18:49:23.325Z,65.57
2023-05-01T18:54:25.474Z,66.43
2023-05-01T18:59:30.901Z,68.37
2023-05-01T19:04:49.156Z,68.97
2023-05-01T19:09:58.753Z,68.26
2023-05-01T19:15:01.164Z,69.41
2023-05-01T19:20:05.747Z,69.15
2023-05-01T19:25:08.530Z,70.75
2023-05-01T19:30:11.051Z,71.78
2023-05-01T19:35:14.600Z,72.84
2023-05-01T19:40:16.820Z,73.42
2023-05-01T19:45:18.877Z,74.35
2023-05-01T19:50:22.713Z,73.05
2023-05-01T19:55:24.899Z,73.26
2023-05-01T20:00:27.969Z,71.80
2023-05-01T20:05:32.482Z,71.03
2023-05-01T20:10:34.480Z,69.75
2023-05-01T20:15:36.982Z,68.37
2023-05-01T20:20:40.329Z,68.09
2023-05-01T20:25:42.598Z,69.07
2023-05-01T20:30:46.212Z,68.16
2023-05-01T20:35:49.640Z,68.93
2023-05-01T20:40:51.687Z,66.84
2023-05-01T20:45:53.670Z,68.05
2023-05-01T20:50:57.184Z,67.85
2023-05-01T20:55:59.157Z,65.27
2023-05-01T21:01:01.735Z,66.51
2023-05-01T21:06:05.709Z,65.85
2023-05-01T21:11:07.740Z,64.64
2023-05-01T21:16:13.910Z,63.00
2023-05-01T21:21:17.503Z,62.79
2023-05-01T21:26:19.715Z,64.76
2023-05-01T21:31:22.159Z,61.61
2023-05-01T21:36:25.511Z,59.56
2023-05-01T21:41:27.460Z,61.21
2023-05-01T21:46:29.525Z,62.56
2023-05-01T21:51:33.451Z,62.56
2023-05-01T21:56:35.585Z,61.90
2023-05-01T22:01:39.164Z,63.14
2023-05-01T22:06:42.499Z,60.84
2023-05-01T22:11:44.550Z,66.26
2023-05-01T22:16:46.782Z,70.10
2023-05-01T22:21:50.245Z,67.73
2023-05-01T22:26:52.340Z,67.91
2023-05-01T22:31:54.296Z,70.55
2023-05-01T22:36:57.580Z,72.04
2023-05-01T22:41:59.818Z,66.89
2023-05-01T22:47:01.752Z,63.64
2023-05-01T22:52:05.498Z,60.65
2023-05-01T22:57:07.675Z,58.83
2023-05-01T23:02:10.075Z,55.63
2023-05-01T23:07:14.395Z,54.99
2023-05-01T23:12:19.915Z,56.20
2023-05-01T23:17:22.043Z,53.94
2023-05-01T23:22:25.778Z,53.25
2023-05-01T23:27:28.189Z,52.15
2023-05-01T23:32:31.894Z,53.12
2023-05-01T23:37:35.330Z,51.39
2023-05-01T23:42:38.301Z,48.88
2023-05-01T23:47:40.695Z,49.54
2023-05-01T23:52:44.333Z,48.28
2023-05-01T23:57:46.425Z,47.63
